sensor_id;sensor_type;location;lat;lon;timestamp;temperature;humidity
22212;DHT22;11275;52.488;13.462;2022-09-01T00:00:39;17.90;99.90
22212;DHT22;11275;52.488;13.462;2022-09-01T00:03:07;17.80;99.90
22212;DHT22;11275;52.488;13.462;2022-09-01T00:05:35;17.80;99.90
22212;DHT22;11275;52.488;13.462;2022-09-01T00:08:02;17.70;99.90
22212;DHT22;11275;52.488;13.462;2022-09-01T00:10:27;17.70;99.90
22212;DHT22;11275;52.488;13.462;2022-09-01T00:12:53;17.80;99.90
22212;DHT22;11275;52.488;13.462;2022-09-01T00:15:19;17.80;99.90
22212;DHT22;11275;52.488;13.462;2022-09-01T00:17:44;17.80;99.90
22212;DHT22;11275;52.488;13.462;2022-09-01T00:20:10;17.90;99.90
22212;DHT22;11275;52.488;13.462;2022-09-01T00:22:36;17.90;99.90
22212;DHT22;11275;52.488;13.462;2022-09-01T00:25:02;17.80;99.90
22212;DHT22;11275;52.488;13.462;2022-09-01T00:27:28;17.80;99.90
22212;DHT22;11275;52.488;13.462;2022-09-01T00:29:54;17.90;99.90
22212;DHT22;11275;52.488;13.462;2022-09-01T00:32:19;17.80;99.90
22212;DHT22;11275;52.488;13.462;2022-09-01T00:34:45;17.80;99.90
22212;DHT22;11275;52.488;13.462;2022-09-01T00:37:11;17.70;99.90
22212;DHT22;11275;52.488;13.462;2022-09-01T00:39:36;17.80;99.90
22212;DHT22;11275;52.488;13.462;2022-09-01T00:42:03;17.90;99.90
22212;DHT22;11275;52.488;13.462;2022-09-01T00:44:28;17.80;99.90
22212;DHT22;11275;52.488;13.462;2022-09-01T00:46:55;17.70;99.90
22212;DHT22;11275;52.488;13.462;2022-09-01T00:49:39;17.70;99.90
22212;DHT22;11275;52.488;13.462;2022-09-01T00:52:34;17.70;99.90
22212;DHT22;11275;52.488;13.462;2022-09-01T00:55:07;17.80;99.90
22212;DHT22;11275;52.488;13.462;2022-09-01T00:57:34;17.80;99.90
22212;DHT22;11275;52.488;13.462;2022-09-01T01:00:15;17.80;99.90
22212;DHT22;11275;52.488;13.462;2022-09-01T01:02:41;17.80;99.90
22212;DHT22;11275;52.488;13.462;2022-09-01T01:05:10;17.80;99.90
22212;DHT22;11275;52.488;13.462;2022-09-01T01:07:36;17.80;99.90
22212;DHT22;11275;52.488;13.462;2022-09-01T01:10:11;17.80;99.90
22212;DHT22;11275;52.488;13.462;2022-09-01T01:12:40;17.70;99.90
22212;DHT22;11275;52.488;13.462;2022-09-01T01:15:09;17.70;99.90
22212;DHT22;11275;52.488;13.462;2022-09-01T01:17:35;17.70;99.90
22212;DHT22;11275;52.488;13.462;2022-09-01T01:20:01;17.70;99.90
22212;DHT22;11275;52.488;13.462;2022-09-01T01:30:33;17.50;99.90
22212;DHT22;11275;52.488;13.462;2022-09-01T01:33:02;17.50;99.90
22212;DHT22;11275;52.488;13.462;2022-09-01T01:35:28;17.50;99.90
22212;DHT22;11275;52.488;13.462;2022-09-01T01:37:56;17.50;99.90
22212;DHT22;11275;52.488;13.462;2022-09-01T01:40:22;17.40;99.90
22212;DHT22;11275;52.488;13.462;2022-09-01T01:42:51;17.40;99.90
22212;DHT22;11275;52.488;13.462;2022-09-01T01:45:20;17.40;99.90
22212;DHT22;11275;52.488;13.462;2022-09-01T01:47:48;17.50;99.90
22212;DHT22;11275;52.488;13.462;2022-09-01T01:50:26;17.40;99.90
22212;DHT22;11275;52.488;13.462;2022-09-01T01:52:54;17.30;99.90
22212;DHT22;11275;52.488;13.462;2022-09-01T01:55:21;17.30;99.90
22212;DHT22;11275;52.488;13.462;2022-09-01T01:57:52;17.30;99.90
22212;DHT22;11275;52.488;13.462;2022-09-01T02:00:20;17.30;99.90
22212;DHT22;11275;52.488;13.462;2022-09-01T02:02:47;17.30;99.90
22212;DHT22;11275;52.488;13.462;2022-09-01T02:05:18;17.20;99.90
22212;DHT22;11275;52.488;13.462;2022-09-01T02:07:50;17.30;99.90
22212;DHT22;11275;52.488;13.462;2022-09-01T02:10:15;17.40;99.90
22212;DHT22;11275;52.488;13.462;2022-09-01T02:12:41;17.40;99.90
22212;DHT22;11275;52.488;13.462;2022-09-01T02:15:08;17.40;99.90
22212;DHT22;11275;52.488;13.462;2022-09-01T02:17:37;17.30;99.90
22212;DHT22;11275;52.488;13.462;2022-09-01T02:20:04;17.30;99.90
22212;DHT22;11275;52.488;13.462;2022-09-01T02:22:30;17.30;99.90
22212;DHT22;11275;52.488;13.462;2022-09-01T02:24:57;17.20;99.90
22212;DHT22;11275;52.488;13.462;2022-09-01T02:27:25;17.20;99.90
22212;DHT22;11275;52.488;13.462;2022-09-01T02:29:54;17.10;99.90
22212;DHT22;11275;52.488;13.462;2022-09-01T02:32:20;17.10;99.90
22212;DHT22;11275;52.488;13.462;2022-09-01T02:34:48;17.00;99.90
22212;DHT22;11275;52.488;13.462;2022-09-01T02:37:22;17.10;99.90
22212;DHT22;11275;52.488;13.462;2022-09-01T02:39:51;17.00;99.90
22212;DHT22;11275;52.488;13.462;2022-09-01T02:42:22;17.00;99.90
22212;DHT22;11275;52.488;13.462;2022-09-01T02:44:55;17.00;99.90
22212;DHT22;11275;52.488;13.462;2022-09-01T02:47:21;17.00;99.90
22212;DHT22;11275;52.488;13.462;2022-09-01T02:49:49;16.90;99.90
22212;DHT22;11275;52.488;13.462;2022-09-01T02:52:14;16.70;99.90
22212;DHT22;11275;52.488;13.462;2022-09-01T02:54:43;16.50;99.90
22212;DHT22;11275;52.488;13.462;2022-09-01T02:57:11;16.50;99.90
22212;DHT22;11275;52.488;13.462;2022-09-01T02:59:36;16.50;99.90
22212;DHT22;11275;52.488;13.462;2022-09-01T03:02:03;16.40;99.90
22212;DHT22;11275;52.488;13.462;2022-09-01T03:04:32;16.30;99.90
22212;DHT22;11275;52.488;13.462;2022-09-01T03:07:00;16.20;99.90
22212;DHT22;11275;52.488;13.462;2022-09-01T03:09:26;16.00;99.90
22212;DHT22;11275;52.488;13.462;2022-09-01T03:11:53;16.00;99.90
22212;DHT22;11275;52.488;13.462;2022-09-01T03:14:21;16.00;99.90
22212;DHT22;11275;52.488;13.462;2022-09-01T03:16:47;15.90;99.90
22212;DHT22;11275;52.488;13.462;2022-09-01T03:19:13;15.80;99.90
22212;DHT22;11275;52.488;13.462;2022-09-01T03:21:41;15.80;99.90
22212;DHT22;11275;52.488;13.462;2022-09-01T03:24:11;15.90;99.90
22212;DHT22;11275;52.488;13.462;2022-09-01T03:26:39;15.80;99.90
22212;DHT22;11275;52.488;13.462;2022-09-01T03:29:04;15.70;99.90
22212;DHT22;11275;52.488;13.462;2022-09-01T03:31:31;15.80;99.90
22212;DHT22;11275;52.488;13.462;2022-09-01T03:33:57;15.80;99.90
22212;DHT22;11275;52.488;13.462;2022-09-01T03:36:27;15.90;99.90
22212;DHT22;11275;52.488;13.462;2022-09-01T03:38:53;16.00;99.90
22212;DHT22;11275;52.488;13.462;2022-09-01T03:41:22;16.00;99.90
22212;DHT22;11275;52.488;13.462;2022-09-01T03:43:49;16.00;99.90
22212;DHT22;11275;52.488;13.462;2022-09-01T03:46:16;15.90;99.90
22212;DHT22;11275;52.488;13.462;2022-09-01T03:48:48;16.00;99.90
22212;DHT22;11275;52.488;13.462;2022-09-01T03:51:15;15.90;99.90
22212;DHT22;11275;52.488;13.462;2022-09-01T03:53:41;15.80;99.90
22212;DHT22;11275;52.488;13.462;2022-09-01T03:56:08;15.80;99.90
22212;DHT22;11275;52.488;13.462;2022-09-01T03:58:34;15.80;99.90
22212;DHT22;11275;52.488;13.462;2022-09-01T04:01:00;15.70;99.90
22212;DHT22;11275;52.488;13.462;2022-09-01T04:03:29;15.70;99.90
22212;DHT22;11275;52.488;13.462;2022-09-01T04:05:56;15.60;99.90
22212;DHT22;11275;52.488;13.462;2022-09-01T04:08:23;15.70;99.90
22212;DHT22;11275;52.488;13.462;2022-09-01T04:10:54;15.60;99.90
22212;DHT22;11275;52.488;13.462;2022-09-01T04:13:33;15.60;99.90
22212;DHT22;11275;52.488;13.462;2022-09-01T04:15:58;15.50;99.90
22212;DHT22;11275;52.488;13.462;2022-09-01T04:18:24;15.40;99.90
22212;DHT22;11275;52.488;13.462;2022-09-01T04:20:53;15.30;99.90
22212;DHT22;11275;52.488;13.462;2022-09-01T04:23:20;15.30;99.90
22212;DHT22;11275;52.488;13.462;2022-09-01T04:25:48;15.40;99.90
22212;DHT22;11275;52.488;13.462;2022-09-01T04:28:19;15.30;99.90
22212;DHT22;11275;52.488;13.462;2022-09-01T04:30:55;15.20;99.90
22212;DHT22;11275;52.488;13.462;2022-09-01T04:33:23;15.00;99.90
22212;DHT22;11275;52.488;13.462;2022-09-01T04:35:49;15.10;99.90
22212;DHT22;11275;52.488;13.462;2022-09-01T04:38:16;15.00;99.90
22212;DHT22;11275;52.488;13.462;2022-09-01T04:40:42;14.90;99.90
22212;DHT22;11275;52.488;13.462;2022-09-01T04:43:08;14.90;99.90
22212;DHT22;11275;52.488;13.462;2022-09-01T04:45:35;14.90;99.90
22212;DHT22;11275;52.488;13.462;2022-09-01T04:48:04;15.00;99.90
22212;DHT22;11275;52.488;13.462;2022-09-01T04:50:31;15.00;99.90
22212;DHT22;11275;52.488;13.462;2022-09-01T04:53:02;14.90;99.90
22212;DHT22;11275;52.488;13.462;2022-09-01T04:55:29;14.90;99.90
22212;DHT22;11275;52.488;13.462;2022-09-01T04:57:57;14.90;99.90
22212;DHT22;11275;52.488;13.462;2022-09-01T05:00:25;14.90;99.90
22212;DHT22;11275;52.488;13.462;2022-09-01T05:02:56;14.90;99.90
22212;DHT22;11275;52.488;13.462;2022-09-01T05:05:28;14.90;99.90
22212;DHT22;11275;52.488;13.462;2022-09-01T05:07:53;14.90;99.90
22212;DHT22;11275;52.488;13.462;2022-09-01T05:10:20;15.00;99.90
22212;DHT22;11275;52.488;13.462;2022-09-01T05:12:47;15.00;99.90
22212;DHT22;11275;52.488;13.462;2022-09-01T05:15:14;14.90;99.90
22212;DHT22;11275;52.488;13.462;2022-09-01T05:17:40;14.90;99.90
22212;DHT22;11275;52.488;13.462;2022-09-01T05:20:06;15.00;99.90
22212;DHT22;11275;52.488;13.462;2022-09-01T05:22:33;15.10;99.90
22212;DHT22;11275;52.488;13.462;2022-09-01T05:25:00;15.20;99.90
22212;DHT22;11275;52.488;13.462;2022-09-01T05:27:29;15.20;99.90
22212;DHT22;11275;52.488;13.462;2022-09-01T05:29:55;15.30;99.90
22212;DHT22;11275;52.488;13.462;2022-09-01T05:32:24;15.20;99.90
22212;DHT22;11275;52.488;13.462;2022-09-01T05:34:51;15.10;99.90
22212;DHT22;11275;52.488;13.462;2022-09-01T05:37:18;15.10;99.90
22212;DHT22;11275;52.488;13.462;2022-09-01T05:39:44;15.10;99.90
22212;DHT22;11275;52.488;13.462;2022-09-01T05:42:10;15.20;99.90
22212;DHT22;11275;52.488;13.462;2022-09-01T05:44:37;15.20;99.90
22212;DHT22;11275;52.488;13.462;2022-09-01T05:47:04;15.10;99.90
22212;DHT22;11275;52.488;13.462;2022-09-01T05:49:36;15.10;99.90
22212;DHT22;11275;52.488;13.462;2022-09-01T05:52:04;15.10;99.90
22212;DHT22;11275;52.488;13.462;2022-09-01T05:54:29;15.10;99.90
22212;DHT22;11275;52.488;13.462;2022-09-01T05:56:57;15.20;99.90
22212;DHT22;11275;52.488;13.462;2022-09-01T05:59:23;15.20;99.90
22212;DHT22;11275;52.488;13.462;2022-09-01T06:01:52;15.30;99.90
22212;DHT22;11275;52.488;13.462;2022-09-01T06:04:18;15.20;99.90
22212;DHT22;11275;52.488;13.462;2022-09-01T06:06:47;15.20;99.90
22212;DHT22;11275;52.488;13.462;2022-09-01T06:09:14;15.20;99.90
22212;DHT22;11275;52.488;13.462;2022-09-01T06:11:43;15.20;99.90
22212;DHT22;11275;52.488;13.462;2022-09-01T06:14:16;15.20;99.90
22212;DHT22;11275;52.488;13.462;2022-09-01T06:16:42;15.20;99.90
22212;DHT22;11275;52.488;13.462;2022-09-01T06:19:09;15.20;99.90
22212;DHT22;11275;52.488;13.462;2022-09-01T06:21:35;15.20;99.90
22212;DHT22;11275;52.488;13.462;2022-09-01T06:24:02;15.30;99.90
22212;DHT22;11275;52.488;13.462;2022-09-01T06:26:33;15.40;99.90
22212;DHT22;11275;52.488;13.462;2022-09-01T06:29:03;15.40;99.90
22212;DHT22;11275;52.488;13.462;2022-09-01T06:31:31;15.60;99.90
22212;DHT22;11275;52.488;13.462;2022-09-01T06:34:05;15.60;99.90
22212;DHT22;11275;52.488;13.462;2022-09-01T06:36:31;15.70;99.90
22212;DHT22;11275;52.488;13.462;2022-09-01T06:38:57;15.90;99.90
22212;DHT22;11275;52.488;13.462;2022-09-01T06:41:25;15.90;99.90
22212;DHT22;11275;52.488;13.462;2022-09-01T06:43:53;16.00;99.90
22212;DHT22;11275;52.488;13.462;2022-09-01T06:46:21;16.00;99.90
22212;DHT22;11275;52.488;13.462;2022-09-01T06:48:48;16.10;99.90
22212;DHT22;11275;52.488;13.462;2022-09-01T06:51:19;16.20;99.90
22212;DHT22;11275;52.488;13.462;2022-09-01T06:53:45;16.30;99.90
22212;DHT22;11275;52.488;13.462;2022-09-01T06:56:16;16.30;99.90
22212;DHT22;11275;52.488;13.462;2022-09-01T06:58:44;16.30;99.90
22212;DHT22;11275;52.488;13.462;2022-09-01T07:01:17;16.40;99.90
22212;DHT22;11275;52.488;13.462;2022-09-01T07:03:45;16.40;99.90
22212;DHT22;11275;52.488;13.462;2022-09-01T07:06:13;16.40;99.90
22212;DHT22;11275;52.488;13.462;2022-09-01T07:08:38;16.50;99.90
22212;DHT22;11275;52.488;13.462;2022-09-01T07:11:06;16.50;99.90
22212;DHT22;11275;52.488;13.462;2022-09-01T07:13:33;16.60;99.90
22212;DHT22;11275;52.488;13.462;2022-09-01T07:16:00;16.60;99.90
22212;DHT22;11275;52.488;13.462;2022-09-01T07:18:27;16.60;99.90
22212;DHT22;11275;52.488;13.462;2022-09-01T07:20:53;16.70;99.90
22212;DHT22;11275;52.488;13.462;2022-09-01T07:23:19;16.70;99.90
22212;DHT22;11275;52.488;13.462;2022-09-01T07:25:47;16.80;99.90
22212;DHT22;11275;52.488;13.462;2022-09-01T07:28:15;16.90;99.90
22212;DHT22;11275;52.488;13.462;2022-09-01T07:30:46;17.00;99.90
22212;DHT22;11275;52.488;13.462;2022-09-01T07:33:16;17.10;99.90
22212;DHT22;11275;52.488;13.462;2022-09-01T07:35:45;17.00;99.90
22212;DHT22;11275;52.488;13.462;2022-09-01T07:38:11;17.10;99.90
22212;DHT22;11275;52.488;13.462;2022-09-01T07:40:40;17.10;99.90
22212;DHT22;11275;52.488;13.462;2022-09-01T07:43:21;17.00;99.90
22212;DHT22;11275;52.488;13.462;2022-09-01T07:45:50;17.10;99.90
22212;DHT22;11275;52.488;13.462;2022-09-01T07:48:18;17.10;99.90
22212;DHT22;11275;52.488;13.462;2022-09-01T07:50:47;17.20;99.90
22212;DHT22;11275;52.488;13.462;2022-09-01T07:53:25;17.10;99.90
22212;DHT22;11275;52.488;13.462;2022-09-01T07:55:53;17.20;99.90
22212;DHT22;11275;52.488;13.462;2022-09-01T07:58:22;17.20;99.90
22212;DHT22;11275;52.488;13.462;2022-09-01T08:00:48;17.30;99.90
22212;DHT22;11275;52.488;13.462;2022-09-01T08:03:18;17.40;99.90
22212;DHT22;11275;52.488;13.462;2022-09-01T08:05:44;17.40;99.90
22212;DHT22;11275;52.488;13.462;2022-09-01T08:08:11;17.50;99.90
22212;DHT22;11275;52.488;13.462;2022-09-01T08:10:39;17.50;99.90
22212;DHT22;11275;52.488;13.462;2022-09-01T08:13:05;17.60;99.90
22212;DHT22;11275;52.488;13.462;2022-09-01T08:15:31;17.60;99.90
22212;DHT22;11275;52.488;13.462;2022-09-01T08:17:57;17.70;99.90
22212;DHT22;11275;52.488;13.462;2022-09-01T08:20:23;17.70;99.90
22212;DHT22;11275;52.488;13.462;2022-09-01T08:22:48;17.70;99.90
22212;DHT22;11275;52.488;13.462;2022-09-01T08:25:15;17.70;99.90
22212;DHT22;11275;52.488;13.462;2022-09-01T08:27:41;17.70;99.90
22212;DHT22;11275;52.488;13.462;2022-09-01T08:30:10;17.80;99.90
22212;DHT22;11275;52.488;13.462;2022-09-01T08:32:37;17.80;99.90
22212;DHT22;11275;52.488;13.462;2022-09-01T08:35:05;17.90;99.90
22212;DHT22;11275;52.488;13.462;2022-09-01T08:37:31;17.90;99.90
22212;DHT22;11275;52.488;13.462;2022-09-01T08:39:56;18.00;99.90
22212;DHT22;11275;52.488;13.462;2022-09-01T08:47:56;18.10;99.90
22212;DHT22;11275;52.488;13.462;2022-09-01T08:50:23;18.20;99.90
22212;DHT22;11275;52.488;13.462;2022-09-01T08:55:33;18.20;99.90
22212;DHT22;11275;52.488;13.462;2022-09-01T08:58:03;18.30;99.90
22212;DHT22;11275;52.488;13.462;2022-09-01T09:03:56;18.50;99.90
22212;DHT22;11275;52.488;13.462;2022-09-01T09:06:34;18.50;99.90
22212;DHT22;11275;52.488;13.462;2022-09-01T09:09:04;18.60;99.90
22212;DHT22;11275;52.488;13.462;2022-09-01T09:16:58;18.70;99.90
22212;DHT22;11275;52.488;13.462;2022-09-01T09:19:31;18.60;99.90
22212;DHT22;11275;52.488;13.462;2022-09-01T09:22:00;18.70;99.90
22212;DHT22;11275;52.488;13.462;2022-09-01T09:27:24;18.80;99.90
22212;DHT22;11275;52.488;13.462;2022-09-01T09:30:08;18.90;99.90
22212;DHT22;11275;52.488;13.462;2022-09-01T09:32:54;19.00;99.90
22212;DHT22;11275;52.488;13.462;2022-09-01T09:35:25;19.10;99.90
22212;DHT22;11275;52.488;13.462;2022-09-01T09:37:52;19.20;99.90
22212;DHT22;11275;52.488;13.462;2022-09-01T09:40:25;19.30;99.90
22212;DHT22;11275;52.488;13.462;2022-09-01T09:45:23;19.20;99.90
22212;DHT22;11275;52.488;13.462;2022-09-01T09:47:50;19.10;99.90
22212;DHT22;11275;52.488;13.462;2022-09-01T09:52:49;19.20;99.90
22212;DHT22;11275;52.488;13.462;2022-09-01T09:55:27;19.20;99.90
22212;DHT22;11275;52.488;13.462;2022-09-01T09:57:59;19.20;99.90
22212;DHT22;11275;52.488;13.462;2022-09-01T10:00:32;19.20;99.90
22212;DHT22;11275;52.488;13.462;2022-09-01T10:03:02;19.30;99.90
22212;DHT22;11275;52.488;13.462;2022-09-01T10:05:43;19.30;99.90
22212;DHT22;11275;52.488;13.462;2022-09-01T10:08:37;19.30;99.90
22212;DHT22;11275;52.488;13.462;2022-09-01T10:11:03;19.20;99.90
22212;DHT22;11275;52.488;13.462;2022-09-01T10:13:30;19.20;99.90
22212;DHT22;11275;52.488;13.462;2022-09-01T10:16:00;19.30;99.90
22212;DHT22;11275;52.488;13.462;2022-09-01T10:18:34;19.40;99.90
22212;DHT22;11275;52.488;13.462;2022-09-01T10:23:35;19.50;99.90
22212;DHT22;11275;52.488;13.462;2022-09-01T10:26:30;19.70;99.90
22212;DHT22;11275;52.488;13.462;2022-09-01T10:29:02;19.90;99.90
22212;DHT22;11275;52.488;13.462;2022-09-01T10:31:30;20.10;99.80
22212;DHT22;11275;52.488;13.462;2022-09-01T10:33:57;20.20;99.70
22212;DHT22;11275;52.488;13.462;2022-09-01T10:36:24;20.30;99.40
22212;DHT22;11275;52.488;13.462;2022-09-01T10:38:49;20.30;99.10
22212;DHT22;11275;52.488;13.462;2022-09-01T10:44:17;20.20;98.80
22212;DHT22;11275;52.488;13.462;2022-09-01T10:46:44;20.10;98.20
22212;DHT22;11275;52.488;13.462;2022-09-01T10:51:52;19.90;99.20
22212;DHT22;11275;52.488;13.462;2022-09-01T10:57:11;20.00;99.60
22212;DHT22;11275;52.488;13.462;2022-09-01T10:59:46;20.10;98.60
22212;DHT22;11275;52.488;13.462;2022-09-01T11:02:19;20.30;98.90
22212;DHT22;11275;52.488;13.462;2022-09-01T11:09:45;20.50;97.00
22212;DHT22;11275;52.488;13.462;2022-09-01T11:14:56;20.80;96.70
22212;DHT22;11275;52.488;13.462;2022-09-01T11:17:32;21.00;96.50
22212;DHT22;11275;52.488;13.462;2022-09-01T11:22:37;21.00;96.20
22212;DHT22;11275;52.488;13.462;2022-09-01T11:25:37;21.00;95.80
22212;DHT22;11275;52.488;13.462;2022-09-01T11:36:27;20.50;95.30
22212;DHT22;11275;52.488;13.462;2022-09-01T11:39:03;20.50;95.70
22212;DHT22;11275;52.488;13.462;2022-09-01T11:41:34;20.70;94.20
22212;DHT22;11275;52.488;13.462;2022-09-01T11:44:31;20.80;94.90
22212;DHT22;11275;52.488;13.462;2022-09-01T11:47:04;21.10;94.90
22212;DHT22;11275;52.488;13.462;2022-09-01T11:49:36;21.20;93.70
22212;DHT22;11275;52.488;13.462;2022-09-01T11:52:07;21.30;93.50
22212;DHT22;11275;52.488;13.462;2022-09-01T11:54:40;21.30;92.00
22212;DHT22;11275;52.488;13.462;2022-09-01T11:59:48;21.00;92.90
22212;DHT22;11275;52.488;13.462;2022-09-01T12:02:28;21.20;93.00
22212;DHT22;11275;52.488;13.462;2022-09-01T12:04:56;21.30;93.00
22212;DHT22;11275;52.488;13.462;2022-09-01T12:10:12;21.40;92.90
22212;DHT22;11275;52.488;13.462;2022-09-01T12:12:39;21.30;93.10
22212;DHT22;11275;52.488;13.462;2022-09-01T12:15:09;21.30;92.80
22212;DHT22;11275;52.488;13.462;2022-09-01T12:17:36;21.50;92.80
22212;DHT22;11275;52.488;13.462;2022-09-01T12:20:27;21.60;92.40
22212;DHT22;11275;52.488;13.462;2022-09-01T12:22:54;21.60;91.90
22212;DHT22;11275;52.488;13.462;2022-09-01T12:25:34;21.60;92.80
22212;DHT22;11275;52.488;13.462;2022-09-01T12:28:01;21.50;93.30
22212;DHT22;11275;52.488;13.462;2022-09-01T12:30:27;21.30;93.20
22212;DHT22;11275;52.488;13.462;2022-09-01T12:32:54;21.30;93.10
22212;DHT22;11275;52.488;13.462;2022-09-01T12:35:25;21.10;92.10
22212;DHT22;11275;52.488;13.462;2022-09-01T12:38:12;21.10;91.70
22212;DHT22;11275;52.488;13.462;2022-09-01T12:40:37;21.10;92.00
22212;DHT22;11275;52.488;13.462;2022-09-01T12:43:03;21.20;92.70
22212;DHT22;11275;52.488;13.462;2022-09-01T12:45:44;21.30;92.20
22212;DHT22;11275;52.488;13.462;2022-09-01T12:48:31;21.30;91.40
22212;DHT22;11275;52.488;13.462;2022-09-01T12:51:40;21.30;91.10
22212;DHT22;11275;52.488;13.462;2022-09-01T12:53:54;21.20;91.60
22212;DHT22;11275;52.488;13.462;2022-09-01T12:56:28;21.20;92.20
22212;DHT22;11275;52.488;13.462;2022-09-01T12:59:13;21.20;92.40
22212;DHT22;11275;52.488;13.462;2022-09-01T13:01:40;21.10;91.90
22212;DHT22;11275;52.488;13.462;2022-09-01T13:06:37;21.00;92.50
22212;DHT22;11275;52.488;13.462;2022-09-01T13:09:05;21.00;92.50
22212;DHT22;11275;52.488;13.462;2022-09-01T13:11:31;21.10;92.90
22212;DHT22;11275;52.488;13.462;2022-09-01T13:13:57;21.20;92.50
22212;DHT22;11275;52.488;13.462;2022-09-01T13:16:23;21.40;92.50
22212;DHT22;11275;52.488;13.462;2022-09-01T13:18:51;21.70;92.30
22212;DHT22;11275;52.488;13.462;2022-09-01T13:21:17;21.70;91.40
22212;DHT22;11275;52.488;13.462;2022-09-01T13:23:43;21.70;92.00
22212;DHT22;11275;52.488;13.462;2022-09-01T13:26:08;21.90;92.00
22212;DHT22;11275;52.488;13.462;2022-09-01T13:28:35;22.00;92.00
22212;DHT22;11275;52.488;13.462;2022-09-01T13:31:03;21.90;91.70
22212;DHT22;11275;52.488;13.462;2022-09-01T13:33:34;21.90;90.70
22212;DHT22;11275;52.488;13.462;2022-09-01T13:36:01;21.90;90.30
22212;DHT22;11275;52.488;13.462;2022-09-01T13:38:27;21.60;88.90
22212;DHT22;11275;52.488;13.462;2022-09-01T13:40:56;21.60;90.00
22212;DHT22;11275;52.488;13.462;2022-09-01T13:43:22;21.70;88.80
22212;DHT22;11275;52.488;13.462;2022-09-01T13:45:51;21.70;89.70
22212;DHT22;11275;52.488;13.462;2022-09-01T13:48:20;21.70;89.40
22212;DHT22;11275;52.488;13.462;2022-09-01T13:50:48;21.70;88.10
22212;DHT22;11275;52.488;13.462;2022-09-01T13:53:14;21.80;88.60
22212;DHT22;11275;52.488;13.462;2022-09-01T13:55:41;21.90;89.80
22212;DHT22;11275;52.488;13.462;2022-09-01T13:58:07;22.10;89.50
22212;DHT22;11275;52.488;13.462;2022-09-01T14:00:36;22.20;88.90
22212;DHT22;11275;52.488;13.462;2022-09-01T14:03:08;22.30;89.00
22212;DHT22;11275;52.488;13.462;2022-09-01T14:05:37;22.30;86.80
22212;DHT22;11275;52.488;13.462;2022-09-01T14:08:04;22.20;85.70
22212;DHT22;11275;52.488;13.462;2022-09-01T14:10:31;22.00;85.10
22212;DHT22;11275;52.488;13.462;2022-09-01T14:12:58;21.70;85.90
22212;DHT22;11275;52.488;13.462;2022-09-01T14:15:25;21.80;88.10
22212;DHT22;11275;52.488;13.462;2022-09-01T14:17:52;21.70;88.50
22212;DHT22;11275;52.488;13.462;2022-09-01T14:20:24;21.70;89.40
22212;DHT22;11275;52.488;13.462;2022-09-01T14:22:50;21.80;90.10
22212;DHT22;11275;52.488;13.462;2022-09-01T14:25:18;21.80;89.80
22212;DHT22;11275;52.488;13.462;2022-09-01T14:27:44;21.70;90.10
22212;DHT22;11275;52.488;13.462;2022-09-01T14:30:24;21.60;89.00
22212;DHT22;11275;52.488;13.462;2022-09-01T14:32:50;21.40;88.90
22212;DHT22;11275;52.488;13.462;2022-09-01T14:35:19;21.30;89.80
22212;DHT22;11275;52.488;13.462;2022-09-01T14:37:46;21.20;89.00
22212;DHT22;11275;52.488;13.462;2022-09-01T14:40:13;21.10;90.50
22212;DHT22;11275;52.488;13.462;2022-09-01T14:42:45;21.20;90.50
22212;DHT22;11275;52.488;13.462;2022-09-01T14:45:17;21.40;91.10
22212;DHT22;11275;52.488;13.462;2022-09-01T14:47:44;21.60;91.00
22212;DHT22;11275;52.488;13.462;2022-09-01T14:50:10;21.80;90.70
22212;DHT22;11275;52.488;13.462;2022-09-01T14:52:37;21.90;90.50
22212;DHT22;11275;52.488;13.462;2022-09-01T14:55:03;22.20;90.50
22212;DHT22;11275;52.488;13.462;2022-09-01T14:57:29;22.40;89.40
22212;DHT22;11275;52.488;13.462;2022-09-01T14:59:57;22.60;89.20
22212;DHT22;11275;52.488;13.462;2022-09-01T15:02:23;22.70;89.00
22212;DHT22;11275;52.488;13.462;2022-09-01T15:04:54;22.80;88.40
22212;DHT22;11275;52.488;13.462;2022-09-01T15:07:20;22.70;88.40
22212;DHT22;11275;52.488;13.462;2022-09-01T15:09:46;22.60;85.90
22212;DHT22;11275;52.488;13.462;2022-09-01T15:12:11;22.20;86.30
22212;DHT22;11275;52.488;13.462;2022-09-01T15:14:37;22.10;88.00
22212;DHT22;11275;52.488;13.462;2022-09-01T15:17:04;22.00;88.10
22212;DHT22;11275;52.488;13.462;2022-09-01T15:19:29;22.00;88.40
22212;DHT22;11275;52.488;13.462;2022-09-01T15:21:55;21.90;89.00
22212;DHT22;11275;52.488;13.462;2022-09-01T15:24:21;21.90;87.10
22212;DHT22;11275;52.488;13.462;2022-09-01T15:26:50;21.80;88.80
22212;DHT22;11275;52.488;13.462;2022-09-01T15:29:16;22.00;89.40
22212;DHT22;11275;52.488;13.462;2022-09-01T15:31:42;22.10;88.90
22212;DHT22;11275;52.488;13.462;2022-09-01T15:34:09;22.30;88.30
22212;DHT22;11275;52.488;13.462;2022-09-01T15:36:37;22.50;88.10
22212;DHT22;11275;52.488;13.462;2022-09-01T15:39:07;22.70;87.80
22212;DHT22;11275;52.488;13.462;2022-09-01T15:41:34;22.90;88.20
22212;DHT22;11275;52.488;13.462;2022-09-01T15:44:01;23.00;87.10
22212;DHT22;11275;52.488;13.462;2022-09-01T15:46:29;23.00;83.50
22212;DHT22;11275;52.488;13.462;2022-09-01T15:49:06;22.80;83.60
22212;DHT22;11275;52.488;13.462;2022-09-01T15:51:39;22.80;83.00
22212;DHT22;11275;52.488;13.462;2022-09-01T15:54:08;22.70;83.60
22212;DHT22;11275;52.488;13.462;2022-09-01T15:56:34;22.70;85.00
22212;DHT22;11275;52.488;13.462;2022-09-01T15:59:01;22.70;85.70
22212;DHT22;11275;52.488;13.462;2022-09-01T16:01:32;22.70;86.30
22212;DHT22;11275;52.488;13.462;2022-09-01T16:03:58;22.80;85.80
22212;DHT22;11275;52.488;13.462;2022-09-01T16:06:24;22.70;85.30
22212;DHT22;11275;52.488;13.462;2022-09-01T16:08:50;22.70;84.30
22212;DHT22;11275;52.488;13.462;2022-09-01T16:11:21;22.60;84.20
22212;DHT22;11275;52.488;13.462;2022-09-01T16:13:48;22.70;84.60
22212;DHT22;11275;52.488;13.462;2022-09-01T16:19:02;22.60;84.20
22212;DHT22;11275;52.488;13.462;2022-09-01T16:22:02;22.50;83.50
22212;DHT22;11275;52.488;13.462;2022-09-01T16:24:33;22.60;84.40
22212;DHT22;11275;52.488;13.462;2022-09-01T16:27:06;22.50;84.00
22212;DHT22;11275;52.488;13.462;2022-09-01T16:30:06;22.40;83.80
22212;DHT22;11275;52.488;13.462;2022-09-01T16:32:33;22.40;84.30
22212;DHT22;11275;52.488;13.462;2022-09-01T16:35:00;22.30;84.40
22212;DHT22;11275;52.488;13.462;2022-09-01T16:40:18;22.30;84.00
22212;DHT22;11275;52.488;13.462;2022-09-01T16:51:27;22.00;84.50